Date,TemperatureHighF,TemperatureAvgF,TemperatureLowF,DewpointHighF,DewpointAvgF,DewpointLowF,HumidityHigh,HumidityAvg,HumidityLow,PressureMaxIn,PressureMinIn,WindSpeedMaxMPH,WindSpeedAvgMPH,GustSpeedMaxMPH,PrecipitationSumIn
2013-3-1,29,23,16,16,14,7,79,68,55,30.33,30.20,13,8,20,0.00
2013-3-2,31,19,6,13,7,2,88,63,37,30.32,30.19,11,4,13,0.00
2013-3-3,32,14,-7,9,2,-12,88,61,30,30.21,30.10,7,3,11,0.01
2013-3-4,31,20,0,18,10,-6,85,66,39,30.17,30.09,12,6,17,0.00
2013-3-5,29,26,23,24,19,13,85,73,58,30.13,30.01,16,8,24,0.00
2013-3-6,32,26,16,23,18,11,84,73,60,30.33,30.27,11,6,18,0.01
2013-3-7,35,20,2,20,12,-2,89,72,51,30.44,30.33,7,2,9,0.00
2013-3-8,40,27,14,28,20,10,91,77,59,30.46,30.24,7,3,11,0.00
2013-3-9,36,32,26,34,29,22,95,88,80,30.25,29.78,11,6,18,0.26
2013-3-10,36,34,29,34,32,27,96,93,85,29.89,29.73,17,8,24,0.10
2013-3-11,31,28,23,28,26,20,95,91,86,29.74,29.59,21,8,26,0.01
2013-3-12,29,23,19,22,18,14,89,81,64,30.05,29.74,14,8,20,0.00
2013-3-13,32,23,14,15,10,5,86,59,33,30.30,30.05,12,8,16,0.01
2013-3-14,35,21,1,26,14,-4,92,76,50,30.29,30.03,6,3,8,0.00
2013-3-15,36,30,24,30,25,21,92,82,63,30.04,29.86,13,6,19,0.03
2013-3-16,27,21,16,21,14,8,91,76,59,30.17,29.88,12,7,17,0.09
2013-3-17,27,16,1,13,6,-3,85,65,43,30.31,30.06,10,-2,15,0.00
2013-3-18,31,22,15,27,19,12,89,86,79,30.07,29.54,21,8,28,0.06
2013-3-19,25,17,11,13,9,4,86,72,56,30.02,29.60,23,16,31,0.00
2013-3-20,19,12,3,6,2,-4,73,65,55,30.10,30.01,14,9,18,0.00
2013-3-21,27,16,4,16,8,-1,86,72,60,30.10,30.02,13,6,15,0.01
2013-3-22,38,20,-3,23,12,-7,89,70,47,30.11,30.03,7,2,10,0.01
2013-3-23,38,28,14,24,20,10,88,72,54,30.16,30.08,8,3,11,0.00
2013-3-24,30,29,28,23,23,21,82,78,71,30.10,29.98,13,5,18,0.00
2013-3-25,38,32,24,26,23,20,87,69,52,30.16,29.97,16,9,30,0.00
2013-3-26,39,32,25,26,23,19,83,68,50,30.26,30.16,8,4,18,0.00
2013-3-27,42,34,27,25,22,18,75,61,44,30.30,30.25,10,4,17,0.00
2013-3-28,42,31,14,26,20,11,90,66,48,30.35,30.27,12,5,18,0.00
2013-3-29,48,35,17,27,21,13,89,60,35,30.33,30.17,6,2,9,0.00
2013-3-30,39,36,32,38,32,23,95,86,68,30.17,29.78,6,3,15,0.74
2013-3-31,39,34,27,34,26,12,96,77,42,29.93,29.67,19,10,30,0.01